sensor_id;sensor_type;location;lat;lon;timestamp;pressure;altitude;pressure_sealevel;temperature;humidity
73383;BME280;61600;48.126;11.542;2023-12-29T00:01:59;95824.97;;;11.53;56.04
73383;BME280;61600;48.126;11.542;2023-12-29T00:04:25;95812.19;;;11.49;55.97
73383;BME280;61600;48.126;11.542;2023-12-29T00:06:51;95814.06;;;11.20;57.48
73383;BME280;61600;48.126;11.542;2023-12-29T00:09:17;95793.59;;;11.27;57.11
73383;BME280;61600;48.126;11.542;2023-12-29T00:11:50;95797.41;;;11.26;57.27
73383;BME280;61600;48.126;11.542;2023-12-29T00:14:16;95801.34;;;11.15;57.79
73383;BME280;61600;48.126;11.542;2023-12-29T00:16:42;95786.56;;;11.21;57.37
73383;BME280;61600;48.126;11.542;2023-12-29T00:19:09;95788.91;;;11.04;58.17
73383;BME280;61600;48.126;11.542;2023-12-29T00:21:36;95791.81;;;11.13;57.77
73383;BME280;61600;48.126;11.542;2023-12-29T00:24:01;95774.41;;;11.09;57.83
73383;BME280;61600;48.126;11.542;2023-12-29T00:26:27;95769.75;;;11.14;57.49
73383;BME280;61600;48.126;11.542;2023-12-29T00:28:54;95769.75;;;11.14;57.22
73383;BME280;61600;48.126;11.542;2023-12-29T00:31:19;95763.66;;;10.93;57.84
73383;BME280;61600;48.126;11.542;2023-12-29T00:33:46;95767.34;;;10.74;57.67
73383;BME280;61600;48.126;11.542;2023-12-29T00:36:18;95766.16;;;10.85;57.27
73383;BME280;61600;48.126;11.542;2023-12-29T00:38:45;95761.03;;;10.83;56.96
73383;BME280;61600;48.126;11.542;2023-12-29T00:41:11;95756.94;;;10.86;56.57
73383;BME280;61600;48.126;11.542;2023-12-29T00:43:36;95751.31;;;10.72;56.59
73383;BME280;61600;48.126;11.542;2023-12-29T00:46:03;95761.88;;;10.79;56.58
73383;BME280;61600;48.126;11.542;2023-12-29T00:48:29;95757.19;;;10.84;56.25
73383;BME280;61600;48.126;11.542;2023-12-29T00:50:55;95748.34;;;10.69;56.52
73383;BME280;61600;48.126;11.542;2023-12-29T00:53:20;95749.69;;;10.71;56.42
73383;BME280;61600;48.126;11.542;2023-12-29T00:55:46;95746.81;;;10.52;56.65
73383;BME280;61600;48.126;11.542;2023-12-29T00:58:12;95749.75;;;10.61;56.75
73383;BME280;61600;48.126;11.542;2023-12-29T01:00:37;95757.09;;;10.66;56.55
73383;BME280;61600;48.126;11.542;2023-12-29T01:03:03;95748.28;;;10.74;56.33
73383;BME280;61600;48.126;11.542;2023-12-29T01:05:29;95739.47;;;10.53;56.62
73383;BME280;61600;48.126;11.542;2023-12-29T01:07:54;95742.44;;;10.57;56.34
73383;BME280;61600;48.126;11.542;2023-12-29T01:10:20;95741.03;;;10.64;56.00
73383;BME280;61600;48.126;11.542;2023-12-29T01:12:45;95746.00;;;10.52;56.33
73383;BME280;61600;48.126;11.542;2023-12-29T01:15:11;95746.81;;;10.52;56.00
73383;BME280;61600;48.126;11.542;2023-12-29T01:17:37;95746.13;;;10.37;57.00
73383;BME280;61600;48.126;11.542;2023-12-29T01:20:02;95757.50;;;10.39;56.80
73383;BME280;61600;48.126;11.542;2023-12-29T01:22:30;95771.91;;;10.44;56.63
73383;BME280;61600;48.126;11.542;2023-12-29T01:24:58;95773.50;;;10.45;56.73
73383;BME280;61600;48.126;11.542;2023-12-29T01:27:24;95775.16;;;10.41;56.96
73383;BME280;61600;48.126;11.542;2023-12-29T01:29:50;95773.06;;;10.28;57.34
73383;BME280;61600;48.126;11.542;2023-12-29T01:32:15;95771.72;;;10.31;57.27
73383;BME280;61600;48.126;11.542;2023-12-29T01:34:41;95770.06;;;10.30;57.07
73383;BME280;61600;48.126;11.542;2023-12-29T01:37:06;95778.22;;;10.30;57.07
73383;BME280;61600;48.126;11.542;2023-12-29T01:39:33;95773.63;;;10.30;56.91
73383;BME280;61600;48.126;11.542;2023-12-29T01:41:59;95773.63;;;10.30;56.80
73383;BME280;61600;48.126;11.542;2023-12-29T01:44:24;95768.75;;;10.27;57.00
73383;BME280;61600;48.126;11.542;2023-12-29T01:46:51;95760.09;;;10.20;56.81
73383;BME280;61600;48.126;11.542;2023-12-29T01:49:19;95763.03;;;10.14;57.03
73383;BME280;61600;48.126;11.542;2023-12-29T01:51:50;95753.03;;;10.09;56.81
73383;BME280;61600;48.126;11.542;2023-12-29T01:54:18;95752.22;;;10.03;56.77
73383;BME280;61600;48.126;11.542;2023-12-29T01:56:46;95750.91;;;9.96;56.85
73383;BME280;61600;48.126;11.542;2023-12-29T01:59:12;95748.19;;;9.96;57.04
73383;BME280;61600;48.126;11.542;2023-12-29T02:01:38;95744.44;;;9.87;57.11
73383;BME280;61600;48.126;11.542;2023-12-29T02:04:06;95750.97;;;9.81;57.41
73383;BME280;61600;48.126;11.542;2023-12-29T02:06:33;95755.34;;;9.77;57.58
73383;BME280;61600;48.126;11.542;2023-12-29T02:08:59;95748.53;;;9.79;57.43
73383;BME280;61600;48.126;11.542;2023-12-29T02:11:26;95742.84;;;9.76;56.79
73383;BME280;61600;48.126;11.542;2023-12-29T02:13:52;95739.59;;;9.74;57.38
73383;BME280;61600;48.126;11.542;2023-12-29T02:19:40;95735.50;;;9.71;57.33
73383;BME280;61600;48.126;11.542;2023-12-29T02:22:08;95729.81;;;9.68;57.56
73383;BME280;61600;48.126;11.542;2023-12-29T02:24:34;95735.84;;;9.60;57.23
73383;BME280;61600;48.126;11.542;2023-12-29T02:27:27;95724.66;;;9.71;56.96
73383;BME280;61600;48.126;11.542;2023-12-29T02:30:06;95720.56;;;9.79;55.56
73383;BME280;61600;48.126;11.542;2023-12-29T02:32:34;95722.94;;;9.90;54.50
73383;BME280;61600;48.126;11.542;2023-12-29T02:35:02;95721.56;;;9.98;54.04
73383;BME280;61600;48.126;11.542;2023-12-29T02:37:29;95726.13;;;10.08;53.45
73383;BME280;61600;48.126;11.542;2023-12-29T02:39:56;95716.03;;;10.18;53.16
73383;BME280;61600;48.126;11.542;2023-12-29T02:42:22;95728.22;;;10.26;52.89
73383;BME280;61600;48.126;11.542;2023-12-29T02:44:48;95712.19;;;10.24;52.65
73383;BME280;61600;48.126;11.542;2023-12-29T02:47:13;95713.69;;;10.45;52.20
73383;BME280;61600;48.126;11.542;2023-12-29T02:49:39;95706.34;;;10.46;51.80
73383;BME280;61600;48.126;11.542;2023-12-29T02:52:04;95713.06;;;10.59;51.80
73383;BME280;61600;48.126;11.542;2023-12-29T02:54:30;95708.16;;;10.56;52.09
73383;BME280;61600;48.126;11.542;2023-12-29T02:56:56;95706.84;;;10.53;52.72
73383;BME280;61600;48.126;11.542;2023-12-29T02:59:21;95709.19;;;10.31;53.75
73383;BME280;61600;48.126;11.542;2023-12-29T03:01:47;95700.03;;;10.17;54.15
73383;BME280;61600;48.126;11.542;2023-12-29T03:04:13;95703.03;;;10.05;55.27
73383;BME280;61600;48.126;11.542;2023-12-29T03:06:40;95695.41;;;10.12;54.62
73383;BME280;61600;48.126;11.542;2023-12-29T03:09:05;95685.91;;;10.10;54.38
73383;BME280;61600;48.126;11.542;2023-12-29T03:11:31;95687.22;;;10.17;54.25
73383;BME280;61600;48.126;11.542;2023-12-29T03:13:57;95680.19;;;10.11;54.25
73383;BME280;61600;48.126;11.542;2023-12-29T03:16:23;95673.69;;;10.07;54.58
73383;BME280;61600;48.126;11.542;2023-12-29T03:18:48;95672.66;;;9.93;54.61
73383;BME280;61600;48.126;11.542;2023-12-29T03:21:14;95682.19;;;9.90;53.63
73383;BME280;61600;48.126;11.542;2023-12-29T03:23:39;95678.66;;;9.90;52.88
73383;BME280;61600;48.126;11.542;2023-12-29T03:26:06;95668.00;;;10.03;52.35
73383;BME280;61600;48.126;11.542;2023-12-29T03:28:31;95681.81;;;10.12;52.23
73383;BME280;61600;48.126;11.542;2023-12-29T03:30:57;95683.72;;;10.17;52.02
73383;BME280;61600;48.126;11.542;2023-12-29T03:33:23;95683.44;;;10.13;51.96
73383;BME280;61600;48.126;11.542;2023-12-29T03:35:48;95689.72;;;10.03;51.59
73383;BME280;61600;48.126;11.542;2023-12-29T03:38:14;95685.66;;;10.06;51.16
73383;BME280;61600;48.126;11.542;2023-12-29T03:40:40;95683.72;;;10.07;50.40
73383;BME280;61600;48.126;11.542;2023-12-29T03:43:05;95682.91;;;10.16;50.22
73383;BME280;61600;48.126;11.542;2023-12-29T03:45:31;95670.09;;;10.22;50.55
73383;BME280;61600;48.126;11.542;2023-12-29T03:47:57;95661.97;;;10.17;49.83
73383;BME280;61600;48.126;11.542;2023-12-29T03:50:22;95673.88;;;10.26;49.46
73383;BME280;61600;48.126;11.542;2023-12-29T03:52:48;95676.19;;;10.42;49.05
73383;BME280;61600;48.126;11.542;2023-12-29T03:55:13;95678.91;;;10.42;48.89
73383;BME280;61600;48.126;11.542;2023-12-29T03:57:40;95669.56;;;10.53;48.41
73383;BME280;61600;48.126;11.542;2023-12-29T04:00:06;95667.81;;;10.68;48.16
73383;BME280;61600;48.126;11.542;2023-12-29T04:02:31;95667.59;;;10.64;48.29
73383;BME280;61600;48.126;11.542;2023-12-29T04:04:58;95659.16;;;10.66;48.30
73383;BME280;61600;48.126;11.542;2023-12-29T04:07:24;95661.44;;;10.82;48.01
73383;BME280;61600;48.126;11.542;2023-12-29T04:09:50;95657.53;;;10.93;47.64
73383;BME280;61600;48.126;11.542;2023-12-29T04:12:15;95652.91;;;10.94;47.79
73383;BME280;61600;48.126;11.542;2023-12-29T04:14:41;95657.84;;;11.16;47.26
73383;BME280;61600;48.126;11.542;2023-12-29T04:17:06;95642.97;;;11.08;47.26
73383;BME280;61600;48.126;11.542;2023-12-29T04:19:39;95643.03;;;10.98;47.39
73383;BME280;61600;48.126;11.542;2023-12-29T04:22:06;95652.38;;;11.16;47.37
73383;BME280;61600;48.126;11.542;2023-12-29T04:24:32;95656.34;;;11.28;46.78
73383;BME280;61600;48.126;11.542;2023-12-29T04:26:58;95652.69;;;11.14;47.06
73383;BME280;61600;48.126;11.542;2023-12-29T04:29:24;95654.44;;;11.29;46.80
73383;BME280;61600;48.126;11.542;2023-12-29T04:31:49;95656.41;;;11.23;47.11
73383;BME280;61600;48.126;11.542;2023-12-29T04:34:15;95648.78;;;11.25;46.90
73383;BME280;61600;48.126;11.542;2023-12-29T04:36:41;95649.69;;;11.39;46.45
73383;BME280;61600;48.126;11.542;2023-12-29T04:39:06;95646.16;;;11.39;46.63
73383;BME280;61600;48.126;11.542;2023-12-29T04:41:34;95653.63;;;11.52;46.70
73383;BME280;61600;48.126;11.542;2023-12-29T04:44:00;95643.59;;;11.47;46.51
73383;BME280;61600;48.126;11.542;2023-12-29T04:46:26;95645.91;;;11.59;46.56
73383;BME280;61600;48.126;11.542;2023-12-29T04:48:51;95649.91;;;11.67;46.46
73383;BME280;61600;48.126;11.542;2023-12-29T04:51:17;95646.72;;;11.60;46.57
73383;BME280;61600;48.126;11.542;2023-12-29T04:53:42;95648.22;;;11.47;46.68
73383;BME280;61600;48.126;11.542;2023-12-29T04:56:08;95648.34;;;11.61;47.01
73383;BME280;61600;48.126;11.542;2023-12-29T04:58:34;95651.00;;;11.66;46.89
73383;BME280;61600;48.126;11.542;2023-12-29T05:00:59;95647.22;;;11.62;47.27
73383;BME280;61600;48.126;11.542;2023-12-29T05:03:25;95649.72;;;11.58;47.37
73383;BME280;61600;48.126;11.542;2023-12-29T05:05:51;95665.25;;;11.58;47.44
73383;BME280;61600;48.126;11.542;2023-12-29T05:08:16;95656.63;;;11.50;47.78
73383;BME280;61600;48.126;11.542;2023-12-29T05:10:43;95649.72;;;11.58;47.58
73383;BME280;61600;48.126;11.542;2023-12-29T05:13:10;95649.81;;;11.53;48.13
73383;BME280;61600;48.126;11.542;2023-12-29T05:15:36;95642.50;;;11.72;47.81
73383;BME280;61600;48.126;11.542;2023-12-29T05:18:01;95649.56;;;11.73;47.96
73383;BME280;61600;48.126;11.542;2023-12-29T05:20:28;95642.31;;;11.64;48.32
73383;BME280;61600;48.126;11.542;2023-12-29T05:22:54;95636.41;;;11.57;48.44
73383;BME280;61600;48.126;11.542;2023-12-29T05:25:19;95632.47;;;11.68;48.39
73383;BME280;61600;48.126;11.542;2023-12-29T05:27:47;95639.81;;;11.67;48.51
73383;BME280;61600;48.126;11.542;2023-12-29T05:30:13;95647.13;;;11.72;48.69
73383;BME280;61600;48.126;11.542;2023-12-29T05:32:39;95654.66;;;11.80;48.39
73383;BME280;61600;48.126;11.542;2023-12-29T05:35:05;95652.03;;;11.70;48.44
73383;BME280;61600;48.126;11.542;2023-12-29T05:37:30;95661.53;;;11.77;48.58
73383;BME280;61600;48.126;11.542;2023-12-29T05:39:56;95658.25;;;11.51;48.75
73383;BME280;61600;48.126;11.542;2023-12-29T05:42:22;95661.28;;;11.50;49.06
73383;BME280;61600;48.126;11.542;2023-12-29T05:44:47;95662.38;;;11.49;49.14
73383;BME280;61600;48.126;11.542;2023-12-29T05:47:13;95661.84;;;11.47;48.99
73383;BME280;61600;48.126;11.542;2023-12-29T05:49:38;95663.94;;;11.55;48.83
73383;BME280;61600;48.126;11.542;2023-12-29T05:52:05;95671.84;;;11.33;49.29
73383;BME280;61600;48.126;11.542;2023-12-29T05:54:31;95664.00;;;11.50;48.91
73383;BME280;61600;48.126;11.542;2023-12-29T05:56:57;95668.06;;;11.52;48.69
73383;BME280;61600;48.126;11.542;2023-12-29T05:59:24;95673.75;;;11.56;48.93
73383;BME280;61600;48.126;11.542;2023-12-29T06:01:50;95669.22;;;11.46;49.00
73383;BME280;61600;48.126;11.542;2023-12-29T06:04:16;95668.09;;;11.47;49.05
73383;BME280;61600;48.126;11.542;2023-12-29T06:06:42;95667.56;;;11.69;48.65
73383;BME280;61600;48.126;11.542;2023-12-29T06:09:11;95669.34;;;11.60;48.68
73383;BME280;61600;48.126;11.542;2023-12-29T06:11:37;95681.59;;;11.58;48.72
73383;BME280;61600;48.126;11.542;2023-12-29T06:14:03;95680.63;;;11.48;48.83
73383;BME280;61600;48.126;11.542;2023-12-29T06:16:29;95678.88;;;11.58;48.46
73383;BME280;61600;48.126;11.542;2023-12-29T06:18:57;95669.09;;;11.57;48.61
73383;BME280;61600;48.126;11.542;2023-12-29T06:21:22;95671.38;;;11.49;48.70
73383;BME280;61600;48.126;11.542;2023-12-29T06:23:48;95669.97;;;11.28;49.18
73383;BME280;61600;48.126;11.542;2023-12-29T06:26:17;95675.06;;;11.35;49.08
73383;BME280;61600;48.126;11.542;2023-12-29T06:28:44;95685.75;;;11.26;49.27
73383;BME280;61600;48.126;11.542;2023-12-29T06:31:10;95685.72;;;11.31;49.23
73383;BME280;61600;48.126;11.542;2023-12-29T06:33:36;95678.66;;;11.54;48.68
73383;BME280;61600;48.126;11.542;2023-12-29T06:36:02;95679.53;;;11.49;48.67
73383;BME280;61600;48.126;11.542;2023-12-29T06:38:28;95667.25;;;11.28;48.86
73383;BME280;61600;48.126;11.542;2023-12-29T06:40:53;95682.16;;;11.36;48.74
73383;BME280;61600;48.126;11.542;2023-12-29T06:43:19;95671.38;;;11.26;49.00
73383;BME280;61600;48.126;11.542;2023-12-29T06:45:45;95673.97;;;11.36;49.03
73383;BME280;61600;48.126;11.542;2023-12-29T06:48:10;95674.31;;;11.29;49.22
73383;BME280;61600;48.126;11.542;2023-12-29T06:50:36;95688.56;;;11.21;49.27
73383;BME280;61600;48.126;11.542;2023-12-29T06:53:04;95690.91;;;11.33;49.42
73383;BME280;61600;48.126;11.542;2023-12-29T06:55:30;95694.13;;;11.35;49.73
73383;BME280;61600;48.126;11.542;2023-12-29T06:57:56;95681.03;;;11.37;49.33
73383;BME280;61600;48.126;11.542;2023-12-29T07:00:22;95683.00;;;11.31;49.41
73383;BME280;61600;48.126;11.542;2023-12-29T07:02:49;95681.84;;;11.37;49.83
73383;BME280;61600;48.126;11.542;2023-12-29T07:05:15;95686.94;;;11.44;49.89
73383;BME280;61600;48.126;11.542;2023-12-29T07:07:40;95675.53;;;11.18;50.61
73383;BME280;61600;48.126;11.542;2023-12-29T07:10:06;95683.72;;;11.13;51.42
73383;BME280;61600;48.126;11.542;2023-12-29T07:12:34;95684.69;;;11.27;51.78
73383;BME280;61600;48.126;11.542;2023-12-29T07:15:00;95701.31;;;11.26;52.11
73383;BME280;61600;48.126;11.542;2023-12-29T07:17:26;95692.47;;;11.39;51.78
73383;BME280;61600;48.126;11.542;2023-12-29T07:19:51;95687.16;;;11.47;51.85
73383;BME280;61600;48.126;11.542;2023-12-29T07:22:17;95688.34;;;11.41;52.14
73383;BME280;61600;48.126;11.542;2023-12-29T07:24:43;95683.69;;;11.42;52.32
73383;BME280;61600;48.126;11.542;2023-12-29T07:27:09;95687.63;;;11.31;52.94
73383;BME280;61600;48.126;11.542;2023-12-29T07:29:34;95688.09;;;11.38;52.85
73383;BME280;61600;48.126;11.542;2023-12-29T07:32:02;95700.66;;;11.34;53.36
73383;BME280;61600;48.126;11.542;2023-12-29T07:34:29;95709.88;;;11.38;53.69
73383;BME280;61600;48.126;11.542;2023-12-29T07:36:57;95696.34;;;11.33;54.17
73383;BME280;61600;48.126;11.542;2023-12-29T07:39:23;95688.78;;;11.25;54.89
73383;BME280;61600;48.126;11.542;2023-12-29T07:41:49;95689.03;;;11.28;55.56
73383;BME280;61600;48.126;11.542;2023-12-29T07:44:16;95684.28;;;11.15;55.75
73383;BME280;61600;48.126;11.542;2023-12-29T07:46:43;95690.97;;;11.23;56.18
73383;BME280;61600;48.126;11.542;2023-12-29T07:49:09;95705.63;;;11.27;56.45
73383;BME280;61600;48.126;11.542;2023-12-29T07:51:42;95712.09;;;11.36;56.62
73383;BME280;61600;48.126;11.542;2023-12-29T07:54:08;95704.63;;;11.46;56.25
73383;BME280;61600;48.126;11.542;2023-12-29T07:56:34;95699.34;;;11.31;56.88
73383;BME280;61600;48.126;11.542;2023-12-29T07:59:02;95711.09;;;11.27;57.01
73383;BME280;61600;48.126;11.542;2023-12-29T08:01:28;95699.19;;;11.46;56.82
73383;BME280;61600;48.126;11.542;2023-12-29T08:03:56;95704.75;;;11.36;57.18
73383;BME280;61600;48.126;11.542;2023-12-29T08:06:22;95705.84;;;11.35;57.21
73383;BME280;61600;48.126;11.542;2023-12-29T08:08:48;95719.63;;;11.44;56.85
73383;BME280;61600;48.126;11.542;2023-12-29T08:11:14;95722.00;;;11.50;56.88
73383;BME280;61600;48.126;11.542;2023-12-29T08:13:43;95720.88;;;11.57;56.43
73383;BME280;61600;48.126;11.542;2023-12-29T08:16:09;95715.56;;;11.65;56.72
73383;BME280;61600;48.126;11.542;2023-12-29T08:18:35;95714.59;;;11.56;56.99
73383;BME280;61600;48.126;11.542;2023-12-29T08:21:01;95720.31;;;11.54;57.06
73383;BME280;61600;48.126;11.542;2023-12-29T08:23:27;95713.97;;;11.64;56.42
73383;BME280;61600;48.126;11.542;2023-12-29T08:25:53;95724.88;;;11.64;56.73
73383;BME280;61600;48.126;11.542;2023-12-29T08:28:18;95723.97;;;11.69;56.46
73383;BME280;61600;48.126;11.542;2023-12-29T08:30:44;95733.00;;;11.40;57.19
73383;BME280;61600;48.126;11.542;2023-12-29T08:33:13;95728.78;;;11.82;56.37
73383;BME280;61600;48.126;11.542;2023-12-29T08:35:42;95732.13;;;11.74;56.20
73383;BME280;61600;48.126;11.542;2023-12-29T08:38:07;95724.63;;;11.61;56.47
73383;BME280;61600;48.126;11.542;2023-12-29T08:40:33;95726.84;;;11.82;56.04
73383;BME280;61600;48.126;11.542;2023-12-29T08:42:58;95728.19;;;11.85;55.71
73383;BME280;61600;48.126;11.542;2023-12-29T08:45:25;95727.88;;;11.86;55.75
73383;BME280;61600;48.126;11.542;2023-12-29T08:47:50;95726.66;;;11.97;55.55
73383;BME280;61600;48.126;11.542;2023-12-29T08:50:16;95729.47;;;11.92;55.58
73383;BME280;61600;48.126;11.542;2023-12-29T08:52:42;95718.75;;;11.77;55.97
73383;BME280;61600;48.126;11.542;2023-12-29T08:55:08;95723.97;;;11.74;56.18
73383;BME280;61600;48.126;11.542;2023-12-29T08:57:35;95719.44;;;11.88;55.66
73383;BME280;61600;48.126;11.542;2023-12-29T09:00:01;95716.28;;;11.76;55.60
73383;BME280;61600;48.126;11.542;2023-12-29T09:02:28;95718.63;;;11.87;55.95
73383;BME280;61600;48.126;11.542;2023-12-29T09:04:54;95715.38;;;11.85;56.34
73383;BME280;61600;48.126;11.542;2023-12-29T09:07:22;95728.06;;;11.95;55.97
73383;BME280;61600;48.126;11.542;2023-12-29T09:09:48;95721.38;;;12.06;55.66
73383;BME280;61600;48.126;11.542;2023-12-29T09:12:15;95719.13;;;11.89;56.33
73383;BME280;61600;48.126;11.542;2023-12-29T09:14:41;95731.94;;;12.13;55.56
73383;BME280;61600;48.126;11.542;2023-12-29T09:17:07;95735.75;;;12.12;55.73
73383;BME280;61600;48.126;11.542;2023-12-29T09:19:33;95729.34;;;12.21;55.55
73383;BME280;61600;48.126;11.542;2023-12-29T09:21:59;95726.19;;;12.33;55.00
73383;BME280;61600;48.126;11.542;2023-12-29T09:24:24;95740.84;;;12.18;55.78
73383;BME280;61600;48.126;11.542;2023-12-29T09:26:50;95731.00;;;12.41;54.98
73383;BME280;61600;48.126;11.542;2023-12-29T09:29:17;95730.56;;;12.34;55.20
73383;BME280;61600;48.126;11.542;2023-12-29T09:31:43;95736.88;;;12.29;55.31
73383;BME280;61600;48.126;11.542;2023-12-29T09:34:10;95730.03;;;12.50;54.74
73383;BME280;61600;48.126;11.542;2023-12-29T09:36:36;95725.75;;;12.63;54.51
73383;BME280;61600;48.126;11.542;2023-12-29T09:39:02;95714.69;;;12.36;54.94
73383;BME280;61600;48.126;11.542;2023-12-29T09:41:31;95726.63;;;12.40;54.93
73383;BME280;61600;48.126;11.542;2023-12-29T09:43:57;95717.66;;;12.39;55.13
73383;BME280;61600;48.126;11.542;2023-12-29T09:46:23;95723.09;;;12.39;55.28
73383;BME280;61600;48.126;11.542;2023-12-29T09:48:52;95723.09;;;12.58;54.66
73383;BME280;61600;48.126;11.542;2023-12-29T09:51:22;95718.41;;;12.45;55.23
73383;BME280;61600;48.126;11.542;2023-12-29T09:53:50;95723.19;;;12.34;55.32
73383;BME280;61600;48.126;11.542;2023-12-29T09:56:17;95718.31;;;12.31;55.59
73383;BME280;61600;48.126;11.542;2023-12-29T09:58:47;95728.34;;;12.36;55.93
73383;BME280;61600;48.126;11.542;2023-12-29T10:01:13;95716.44;;;12.45;55.37
73383;BME280;61600;48.126;11.542;2023-12-29T10:03:40;95712.88;;;12.31;55.95
73383;BME280;61600;48.126;11.542;2023-12-29T10:06:07;95717.19;;;12.32;56.39
73383;BME280;61600;48.126;11.542;2023-12-29T10:08:34;95720.38;;;12.21;56.86
73383;BME280;61600;48.126;11.542;2023-12-29T10:11:01;95710.72;;;12.47;56.18
73383;BME280;61600;48.126;11.542;2023-12-29T10:13:31;95693.63;;;12.23;56.44
73383;BME280;61600;48.126;11.542;2023-12-29T10:16:07;95704.59;;;12.18;57.15
73383;BME280;61600;48.126;11.542;2023-12-29T10:21:16;95717.19;;;12.14;58.12
73383;BME280;61600;48.126;11.542;2023-12-29T10:23:51;95692.72;;;12.09;58.82
73383;BME280;61600;48.126;11.542;2023-12-29T10:26:22;95681.75;;;12.32;58.34
73383;BME280;61600;48.126;11.542;2023-12-29T10:28:48;95679.22;;;12.36;58.59
73383;BME280;61600;48.126;11.542;2023-12-29T10:31:17;95667.72;;;12.39;58.71
73383;BME280;61600;48.126;11.542;2023-12-29T10:33:42;95669.00;;;12.28;58.78
73383;BME280;61600;48.126;11.542;2023-12-29T10:36:08;95660.72;;;12.14;59.91
73383;BME280;61600;48.126;11.542;2023-12-29T10:38:39;95669.44;;;12.35;58.85
73383;BME280;61600;48.126;11.542;2023-12-29T10:43:43;95657.69;;;12.53;58.65
73383;BME280;61600;48.126;11.542;2023-12-29T10:46:10;95661.72;;;12.74;58.22
73383;BME280;61600;48.126;11.542;2023-12-29T10:48:37;95657.31;;;12.60;58.61
73383;BME280;61600;48.126;11.542;2023-12-29T10:51:04;95667.94;;;12.61;58.48
73383;BME280;61600;48.126;11.542;2023-12-29T10:53:33;95661.59;;;12.66;58.09
73383;BME280;61600;48.126;11.542;2023-12-29T10:55:59;95657.31;;;12.92;57.33
73383;BME280;61600;48.126;11.542;2023-12-29T10:58:26;95652.44;;;12.57;58.63
73383;BME280;61600;48.126;11.542;2023-12-29T11:00:58;95658.44;;;12.40;58.69
73383;BME280;61600;48.126;11.542;2023-12-29T11:03:25;95655.44;;;12.74;57.72
73383;BME280;61600;48.126;11.542;2023-12-29T11:05:58;95655.78;;;12.86;57.46
73383;BME280;61600;48.126;11.542;2023-12-29T11:08:26;95633.78;;;12.64;57.93
73383;BME280;61600;48.126;11.542;2023-12-29T11:10:54;95641.19;;;12.44;58.66
73383;BME280;61600;48.126;11.542;2023-12-29T11:13:19;95641.09;;;12.49;58.56
73383;BME280;61600;48.126;11.542;2023-12-29T11:15:45;95637.03;;;12.66;58.18
73383;BME280;61600;48.126;11.542;2023-12-29T11:18:16;95632.00;;;12.73;57.73
73383;BME280;61600;48.126;11.542;2023-12-29T11:20:42;95628.25;;;12.69;57.72
73383;BME280;61600;48.126;11.542;2023-12-29T11:23:11;95637.03;;;12.66;57.92
73383;BME280;61600;48.126;11.542;2023-12-29T11:25:40;95635.56;;;12.73;57.74
73383;BME280;61600;48.126;11.542;2023-12-29T11:28:09;95623.75;;;12.91;57.47
73383;BME280;61600;48.126;11.542;2023-12-29T11:30:35;95620.03;;;13.01;57.18
73383;BME280;61600;48.126;11.542;2023-12-29T11:33:03;95628.31;;;12.96;57.17
73383;BME280;61600;48.126;11.542;2023-12-29T11:35:45;95615.72;;;12.81;57.37
73383;BME280;61600;48.126;11.542;2023-12-29T11:38:39;95620.84;;;13.01;57.03
73383;BME280;61600;48.126;11.542;2023-12-29T11:41:16;95613.53;;;13.16;56.26
73383;BME280;61600;48.126;11.542;2023-12-29T11:43:45;95608.28;;;12.87;57.09
73383;BME280;61600;48.126;11.542;2023-12-29T11:46:47;95605.16;;;12.93;56.81
73383;BME280;61600;48.126;11.542;2023-12-29T11:49:13;95612.94;;;13.00;56.66
73383;BME280;61600;48.126;11.542;2023-12-29T11:51:42;95605.16;;;13.07;56.56
73383;BME280;61600;48.126;11.542;2023-12-29T11:54:24;95610.28;;;12.81;57.40
73383;BME280;61600;48.126;11.542;2023-12-29T11:56:51;95605.41;;;13.24;56.35
73383;BME280;61600;48.126;11.542;2023-12-29T11:59:25;95589.41;;;13.04;56.14
73383;BME280;61600;48.126;11.542;2023-12-29T12:01:59;95602.00;;;13.32;55.84
73383;BME280;61600;48.126;11.542;2023-12-29T12:04:45;95592.63;;;13.06;56.49
73383;BME280;61600;48.126;11.542;2023-12-29T12:07:56;95600.75;;;13.11;56.43
73383;BME280;61600;48.126;11.542;2023-12-29T12:12:59;95590.66;;;13.25;55.92
73383;BME280;61600;48.126;11.542;2023-12-29T12:15:31;95604.03;;;13.40;55.55
73383;BME280;61600;48.126;11.542;2023-12-29T12:18:06;95585.19;;;13.12;55.92
73383;BME280;61600;48.126;11.542;2023-12-29T12:20:33;95588.53;;;13.22;55.91
73383;BME280;61600;48.126;11.542;2023-12-29T12:23:32;95586.91;;;13.35;55.18
73383;BME280;61600;48.126;11.542;2023-12-29T12:26:01;95587.63;;;13.54;55.36
73383;BME280;61600;48.126;11.542;2023-12-29T12:28:29;95569.88;;;13.51;55.37
73383;BME280;61600;48.126;11.542;2023-12-29T12:31:05;95583.03;;;13.63;54.97
73383;BME280;61600;48.126;11.542;2023-12-29T12:33:32;95579.94;;;13.42;55.46
73383;BME280;61600;48.126;11.542;2023-12-29T12:36:00;95585.66;;;13.55;55.17
73383;BME280;61600;48.126;11.542;2023-12-29T12:38:26;95573.56;;;13.33;55.66
73383;BME280;61600;48.126;11.542;2023-12-29T12:40:52;95581.50;;;13.02;57.32
73383;BME280;61600;48.126;11.542;2023-12-29T12:43:18;95583.94;;;12.90;56.47
73383;BME280;61600;48.126;11.542;2023-12-29T12:45:53;95571.69;;;13.01;56.79
73383;BME280;61600;48.126;11.542;2023-12-29T12:48:29;95585.59;;;13.32;55.73
73383;BME280;61600;48.126;11.542;2023-12-29T12:50:57;95581.84;;;13.15;56.73
73383;BME280;61600;48.126;11.542;2023-12-29T12:53:25;95590.78;;;12.88;56.09
73383;BME280;61600;48.126;11.542;2023-12-29T12:55:52;95588.53;;;13.36;55.67
73383;BME280;61600;48.126;11.542;2023-12-29T12:58:19;95593.47;;;13.20;55.76
73383;BME280;61600;48.126;11.542;2023-12-29T13:00:49;95591.06;;;13.19;55.86
73383;BME280;61600;48.126;11.542;2023-12-29T13:03:16;95585.72;;;12.95;56.40